sensor_id;sensor_type;location;lat;lon;timestamp;P1;P2;P0
71858;PMS5003;59713;50.866;4.324;2023-01-19T00:00:50;24;23;
71858;PMS5003;59713;50.866;4.324;2023-01-19T00:01:50;24;23;
71858;PMS5003;59713;50.866;4.324;2023-01-19T00:02:50;31;30;
71858;PMS5003;59713;50.866;4.324;2023-01-19T00:02:50;31;30;
71858;PMS5003;59713;50.866;4.324;2023-01-19T00:03:51;31;30;
71858;PMS5003;59713;50.866;4.324;2023-01-19T00:04:50;31;30;
71858;PMS5003;59713;50.866;4.324;2023-01-19T00:05:50;29;25;
71858;PMS5003;59713;50.866;4.324;2023-01-19T00:06:50;29;25;
71858;PMS5003;59713;50.866;4.324;2023-01-19T00:07:50;29;25;
71858;PMS5003;59713;50.866;4.324;2023-01-19T00:08:50;19;18;
71858;PMS5003;59713;50.866;4.324;2023-01-19T00:09:50;19;18;
71858;PMS5003;59713;50.866;4.324;2023-01-19T00:10:50;19;18;
71858;PMS5003;59713;50.866;4.324;2023-01-19T00:11:50;25;24;
71858;PMS5003;59713;50.866;4.324;2023-01-19T00:11:50;25;24;
71858;PMS5003;59713;50.866;4.324;2023-01-19T00:12:50;25;24;
71858;PMS5003;59713;50.866;4.324;2023-01-19T00:13:50;25;24;
71858;PMS5003;59713;50.866;4.324;2023-01-19T00:14:50;31;25;
71858;PMS5003;59713;50.866;4.324;2023-01-19T00:15:50;31;25;
71858;PMS5003;59713;50.866;4.324;2023-01-19T00:16:50;31;25;
71858;PMS5003;59713;50.866;4.324;2023-01-19T00:17:50;23;20;
71858;PMS5003;59713;50.866;4.324;2023-01-19T00:18:50;23;20;
71858;PMS5003;59713;50.866;4.324;2023-01-19T00:19:50;23;20;
71858;PMS5003;59713;50.866;4.324;2023-01-19T00:20:50;23;23;
71858;PMS5003;59713;50.866;4.324;2023-01-19T00:20:50;23;23;
71858;PMS5003;59713;50.866;4.324;2023-01-19T00:21:50;23;23;
71858;PMS5003;59713;50.866;4.324;2023-01-19T00:22:50;23;23;
71858;PMS5003;59713;50.866;4.324;2023-01-19T00:23:50;20;20;
71858;PMS5003;59713;50.866;4.324;2023-01-19T00:24:50;20;20;
71858;PMS5003;59713;50.866;4.324;2023-01-19T00:25:50;20;20;
71858;PMS5003;59713;50.866;4.324;2023-01-19T00:26:50;27;24;
71858;PMS5003;59713;50.866;4.324;2023-01-19T00:27:50;27;24;
71858;PMS5003;59713;50.866;4.324;2023-01-19T00:28:52;27;24;
71858;PMS5003;59713;50.866;4.324;2023-01-19T00:29:50;28;24;
71858;PMS5003;59713;50.866;4.324;2023-01-19T00:29:50;28;24;
71858;PMS5003;59713;50.866;4.324;2023-01-19T00:30:50;28;24;
71858;PMS5003;59713;50.866;4.324;2023-01-19T00:31:50;28;24;
71858;PMS5003;59713;50.866;4.324;2023-01-19T00:32:50;24;19;
71858;PMS5003;59713;50.866;4.324;2023-01-19T00:33:50;24;19;
71858;PMS5003;59713;50.866;4.324;2023-01-19T00:34:50;24;19;
71858;PMS5003;59713;50.866;4.324;2023-01-19T00:35:50;27;24;
71858;PMS5003;59713;50.866;4.324;2023-01-19T00:36:50;27;24;
71858;PMS5003;59713;50.866;4.324;2023-01-19T00:37:50;27;24;
71858;PMS5003;59713;50.866;4.324;2023-01-19T00:38:50;28;23;
71858;PMS5003;59713;50.866;4.324;2023-01-19T00:40:50;28;23;
71858;PMS5003;59713;50.866;4.324;2023-01-19T00:40:50;28;23;
71858;PMS5003;59713;50.866;4.324;2023-01-19T00:41:50;26;21;
71858;PMS5003;59713;50.866;4.324;2023-01-19T00:42:50;26;21;
71858;PMS5003;59713;50.866;4.324;2023-01-19T00:43:50;26;21;
71858;PMS5003;59713;50.866;4.324;2023-01-19T00:44:52;28;25;
71858;PMS5003;59713;50.866;4.324;2023-01-19T00:45:50;28;25;
71858;PMS5003;59713;50.866;4.324;2023-01-19T00:46:51;28;25;
71858;PMS5003;59713;50.866;4.324;2023-01-19T00:47:53;24;22;
71858;PMS5003;59713;50.866;4.324;2023-01-19T00:48:50;24;22;
71858;PMS5003;59713;50.866;4.324;2023-01-19T00:48:50;24;22;
71858;PMS5003;59713;50.866;4.324;2023-01-19T00:49:50;24;22;
71858;PMS5003;59713;50.866;4.324;2023-01-19T00:50:50;27;25;
71858;PMS5003;59713;50.866;4.324;2023-01-19T00:51:50;27;25;
71858;PMS5003;59713;50.866;4.324;2023-01-19T00:52:51;27;25;
71858;PMS5003;59713;50.866;4.324;2023-01-19T00:53:50;26;26;
71858;PMS5003;59713;50.866;4.324;2023-01-19T00:54:50;26;26;
71858;PMS5003;59713;50.866;4.324;2023-01-19T00:55:51;26;26;
71858;PMS5003;59713;50.866;4.324;2023-01-19T00:56:50;24;22;
71858;PMS5003;59713;50.866;4.324;2023-01-19T00:57:50;24;22;
71858;PMS5003;59713;50.866;4.324;2023-01-19T00:58:50;24;22;
71858;PMS5003;59713;50.866;4.324;2023-01-19T00:58:50;24;22;
71858;PMS5003;59713;50.866;4.324;2023-01-19T00:59:50;26;23;
71858;PMS5003;59713;50.866;4.324;2023-01-19T01:00:52;26;23;
71858;PMS5003;59713;50.866;4.324;2023-01-19T01:01:50;26;23;
71858;PMS5003;59713;50.866;4.324;2023-01-19T01:02:50;31;26;
71858;PMS5003;59713;50.866;4.324;2023-01-19T01:03:50;31;26;
71858;PMS5003;59713;50.866;4.324;2023-01-19T01:04:50;31;26;
71858;PMS5003;59713;50.866;4.324;2023-01-19T01:05:50;31;29;
71858;PMS5003;59713;50.866;4.324;2023-01-19T01:06:50;31;29;
71858;PMS5003;59713;50.866;4.324;2023-01-19T01:07:50;31;29;
71858;PMS5003;59713;50.866;4.324;2023-01-19T01:08:50;28;24;
71858;PMS5003;59713;50.866;4.324;2023-01-19T01:08:50;28;24;
71858;PMS5003;59713;50.866;4.324;2023-01-19T01:09:50;28;24;
71858;PMS5003;59713;50.866;4.324;2023-01-19T01:10:56;28;24;
71858;PMS5003;59713;50.866;4.324;2023-01-19T01:11:50;27;26;
71858;PMS5003;59713;50.866;4.324;2023-01-19T01:12:50;27;26;
71858;PMS5003;59713;50.866;4.324;2023-01-19T01:13:50;27;26;
71858;PMS5003;59713;50.866;4.324;2023-01-19T01:14:51;23;20;
71858;PMS5003;59713;50.866;4.324;2023-01-19T01:15:50;23;20;
71858;PMS5003;59713;50.866;4.324;2023-01-19T01:16:50;23;20;
71858;PMS5003;59713;50.866;4.324;2023-01-19T01:17:50;27;19;
71858;PMS5003;59713;50.866;4.324;2023-01-19T01:17:50;27;19;
71858;PMS5003;59713;50.866;4.324;2023-01-19T01:18:50;27;19;
71858;PMS5003;59713;50.866;4.324;2023-01-19T01:19:50;27;19;
71858;PMS5003;59713;50.866;4.324;2023-01-19T01:20:59;24;22;
71858;PMS5003;59713;50.866;4.324;2023-01-19T01:21:56;24;22;
71858;PMS5003;59713;50.866;4.324;2023-01-19T01:22:51;24;22;
71858;PMS5003;59713;50.866;4.324;2023-01-19T01:23:50;27;21;
71858;PMS5003;59713;50.866;4.324;2023-01-19T01:24:50;27;21;
71858;PMS5003;59713;50.866;4.324;2023-01-19T01:25:50;27;21;
71858;PMS5003;59713;50.866;4.324;2023-01-19T01:26:50;28;23;
71858;PMS5003;59713;50.866;4.324;2023-01-19T01:26:50;28;23;
71858;PMS5003;59713;50.866;4.324;2023-01-19T01:27:50;28;23;
71858;PMS5003;59713;50.866;4.324;2023-01-19T01:28:50;28;23;
71858;PMS5003;59713;50.866;4.324;2023-01-19T01:29:50;30;24;
71858;PMS5003;59713;50.866;4.324;2023-01-19T01:30:51;30;24;
71858;PMS5003;59713;50.866;4.324;2023-01-19T01:31:50;30;24;
71858;PMS5003;59713;50.866;4.324;2023-01-19T01:32:50;25;22;
71858;PMS5003;59713;50.866;4.324;2023-01-19T01:33:50;25;22;
71858;PMS5003;59713;50.866;4.324;2023-01-19T01:34:50;25;22;
71858;PMS5003;59713;50.866;4.324;2023-01-19T01:35:50;29;25;
71858;PMS5003;59713;50.866;4.324;2023-01-19T01:35:50;29;25;
71858;PMS5003;59713;50.866;4.324;2023-01-19T01:36:50;29;25;
71858;PMS5003;59713;50.866;4.324;2023-01-19T01:37:50;29;25;
71858;PMS5003;59713;50.866;4.324;2023-01-19T01:38:50;27;23;
71858;PMS5003;59713;50.866;4.324;2023-01-19T01:39:53;27;23;
71858;PMS5003;59713;50.866;4.324;2023-01-19T01:40:50;27;23;
71858;PMS5003;59713;50.866;4.324;2023-01-19T01:41:50;29;27;
71858;PMS5003;59713;50.866;4.324;2023-01-19T01:42:50;29;27;
71858;PMS5003;59713;50.866;4.324;2023-01-19T01:43:51;29;27;
71858;PMS5003;59713;50.866;4.324;2023-01-19T01:44:51;26;25;
71858;PMS5003;59713;50.866;4.324;2023-01-19T01:44:51;26;25;
71858;PMS5003;59713;50.866;4.324;2023-01-19T01:45:50;26;25;
71858;PMS5003;59713;50.866;4.324;2023-01-19T01:46:50;26;25;
71858;PMS5003;59713;50.866;4.324;2023-01-19T01:47:50;26;22;
71858;PMS5003;59713;50.866;4.324;2023-01-19T01:48:53;26;22;
71858;PMS5003;59713;50.866;4.324;2023-01-19T01:49:50;26;22;
71858;PMS5003;59713;50.866;4.324;2023-01-19T01:50:51;28;27;
71858;PMS5003;59713;50.866;4.324;2023-01-19T01:51:51;28;27;
71858;PMS5003;59713;50.866;4.324;2023-01-19T01:52:51;28;27;
71858;PMS5003;59713;50.866;4.324;2023-01-19T01:53:52;21;21;
71858;PMS5003;59713;50.866;4.324;2023-01-19T01:53:53;21;21;
71858;PMS5003;59713;50.866;4.324;2023-01-19T01:54:50;21;21;
71858;PMS5003;59713;50.866;4.324;2023-01-19T01:55:50;21;21;
71858;PMS5003;59713;50.866;4.324;2023-01-19T01:56:51;24;24;
71858;PMS5003;59713;50.866;4.324;2023-01-19T01:57:52;24;24;
71858;PMS5003;59713;50.866;4.324;2023-01-19T01:58:50;24;24;
71858;PMS5003;59713;50.866;4.324;2023-01-19T01:59:50;36;31;
71858;PMS5003;59713;50.866;4.324;2023-01-19T02:00:50;36;31;
71858;PMS5003;59713;50.866;4.324;2023-01-19T02:01:50;36;31;
71858;PMS5003;59713;50.866;4.324;2023-01-19T02:02:50;24;23;
71858;PMS5003;59713;50.866;4.324;2023-01-19T02:03:50;24;23;
71858;PMS5003;59713;50.866;4.324;2023-01-19T02:03:50;24;23;
71858;PMS5003;59713;50.866;4.324;2023-01-19T02:04:51;24;23;
71858;PMS5003;59713;50.866;4.324;2023-01-19T02:05:50;33;26;
71858;PMS5003;59713;50.866;4.324;2023-01-19T02:06:50;33;26;
71858;PMS5003;59713;50.866;4.324;2023-01-19T02:07:52;33;26;
71858;PMS5003;59713;50.866;4.324;2023-01-19T02:08:52;28;25;
71858;PMS5003;59713;50.866;4.324;2023-01-19T02:09:50;28;25;
71858;PMS5003;59713;50.866;4.324;2023-01-19T02:10:50;28;25;
71858;PMS5003;59713;50.866;4.324;2023-01-19T02:11:50;20;20;
71858;PMS5003;59713;50.866;4.324;2023-01-19T02:12:50;20;20;
71858;PMS5003;59713;50.866;4.324;2023-01-19T02:12:50;20;20;
71858;PMS5003;59713;50.866;4.324;2023-01-19T02:13:50;20;20;
71858;PMS5003;59713;50.866;4.324;2023-01-19T02:14:50;28;28;
71858;PMS5003;59713;50.866;4.324;2023-01-19T02:15:51;28;28;
71858;PMS5003;59713;50.866;4.324;2023-01-19T02:16:50;28;28;
71858;PMS5003;59713;50.866;4.324;2023-01-19T02:17:50;26;23;
71858;PMS5003;59713;50.866;4.324;2023-01-19T02:18:50;26;23;
71858;PMS5003;59713;50.866;4.324;2023-01-19T02:19:50;26;23;
71858;PMS5003;59713;50.866;4.324;2023-01-19T02:20:52;28;27;
71858;PMS5003;59713;50.866;4.324;2023-01-19T02:21:55;28;27;
71858;PMS5003;59713;50.866;4.324;2023-01-19T02:21:56;28;27;
71858;PMS5003;59713;50.866;4.324;2023-01-19T02:22:50;28;27;
71858;PMS5003;59713;50.866;4.324;2023-01-19T02:23:51;30;24;
71858;PMS5003;59713;50.866;4.324;2023-01-19T02:24:50;30;24;
71858;PMS5003;59713;50.866;4.324;2023-01-19T02:25:50;30;24;
71858;PMS5003;59713;50.866;4.324;2023-01-19T02:26:50;24;24;
71858;PMS5003;59713;50.866;4.324;2023-01-19T02:27:50;24;24;
71858;PMS5003;59713;50.866;4.324;2023-01-19T02:28:51;24;24;
71858;PMS5003;59713;50.866;4.324;2023-01-19T02:29:50;28;25;
71858;PMS5003;59713;50.866;4.324;2023-01-19T02:30:50;28;25;
71858;PMS5003;59713;50.866;4.324;2023-01-19T02:30:50;28;25;
71858;PMS5003;59713;50.866;4.324;2023-01-19T02:31:50;28;25;
71858;PMS5003;59713;50.866;4.324;2023-01-19T02:32:50;26;24;
71858;PMS5003;59713;50.866;4.324;2023-01-19T02:33:52;26;24;
71858;PMS5003;59713;50.866;4.324;2023-01-19T02:34:50;26;24;
71858;PMS5003;59713;50.866;4.324;2023-01-19T02:35:51;25;25;
71858;PMS5003;59713;50.866;4.324;2023-01-19T02:36:51;25;25;
71858;PMS5003;59713;50.866;4.324;2023-01-19T02:37:52;25;25;
71858;PMS5003;59713;50.866;4.324;2023-01-19T02:38:50;26;24;
71858;PMS5003;59713;50.866;4.324;2023-01-19T02:39:51;26;24;
71858;PMS5003;59713;50.866;4.324;2023-01-19T02:39:51;26;24;
71858;PMS5003;59713;50.866;4.324;2023-01-19T02:41:51;26;24;
71858;PMS5003;59713;50.866;4.324;2023-01-19T02:42:51;26;24;
71858;PMS5003;59713;50.866;4.324;2023-01-19T02:43:50;26;24;
71858;PMS5003;59713;50.866;4.324;2023-01-19T02:44:50;29;25;
71858;PMS5003;59713;50.866;4.324;2023-01-19T02:45:50;29;25;
71858;PMS5003;59713;50.866;4.324;2023-01-19T02:47:02;29;25;
71858;PMS5003;59713;50.866;4.324;2023-01-19T02:47:50;24;22;
71858;PMS5003;59713;50.866;4.324;2023-01-19T02:48:50;24;22;
71858;PMS5003;59713;50.866;4.324;2023-01-19T02:48:50;24;22;
71858;PMS5003;59713;50.866;4.324;2023-01-19T02:49:54;24;22;
71858;PMS5003;59713;50.866;4.324;2023-01-19T02:50:51;27;25;
71858;PMS5003;59713;50.866;4.324;2023-01-19T02:51:50;27;25;
71858;PMS5003;59713;50.866;4.324;2023-01-19T02:52:50;27;25;
71858;PMS5003;59713;50.866;4.324;2023-01-19T02:54:54;24;22;
71858;PMS5003;59713;50.866;4.324;2023-01-19T02:55:52;24;22;
71858;PMS5003;59713;50.866;4.324;2023-01-19T02:56:54;21;19;
71858;PMS5003;59713;50.866;4.324;2023-01-19T02:57:52;21;19;
71858;PMS5003;59713;50.866;4.324;2023-01-19T02:57:52;21;19;
71858;PMS5003;59713;50.866;4.324;2023-01-19T02:58:52;21;19;
71858;PMS5003;59713;50.866;4.324;2023-01-19T02:59:54;30;27;
71858;PMS5003;59713;50.866;4.324;2023-01-19T03:00:51;30;27;
71858;PMS5003;59713;50.866;4.324;2023-01-19T03:01:54;30;27;
71858;PMS5003;59713;50.866;4.324;2023-01-19T03:02:55;26;26;
71858;PMS5003;59713;50.866;4.324;2023-01-19T03:03:52;26;26;
71858;PMS5003;59713;50.866;4.324;2023-01-19T03:04:53;26;26;
71858;PMS5003;59713;50.866;4.324;2023-01-19T03:05:52;30;25;
71858;PMS5003;59713;50.866;4.324;2023-01-19T03:06:51;30;25;
71858;PMS5003;59713;50.866;4.324;2023-01-19T03:06:51;30;25;
71858;PMS5003;59713;50.866;4.324;2023-01-19T03:07:53;30;25;
71858;PMS5003;59713;50.866;4.324;2023-01-19T03:08:51;28;25;
71858;PMS5003;59713;50.866;4.324;2023-01-19T03:09:51;28;25;
71858;PMS5003;59713;50.866;4.324;2023-01-19T03:10:52;28;25;
71858;PMS5003;59713;50.866;4.324;2023-01-19T03:11:51;27;26;
71858;PMS5003;59713;50.866;4.324;2023-01-19T03:12:51;27;26;
71858;PMS5003;59713;50.866;4.324;2023-01-19T03:13:51;27;26;
71858;PMS5003;59713;50.866;4.324;2023-01-19T03:14:50;26;23;
71858;PMS5003;59713;50.866;4.324;2023-01-19T03:15:51;26;23;
71858;PMS5003;59713;50.866;4.324;2023-01-19T03:15:51;26;23;
71858;PMS5003;59713;50.866;4.324;2023-01-19T03:16:51;26;23;
71858;PMS5003;59713;50.866;4.324;2023-01-19T03:17:50;24;20;
71858;PMS5003;59713;50.866;4.324;2023-01-19T03:18:51;24;20;
71858;PMS5003;59713;50.866;4.324;2023-01-19T03:19:51;24;20;
71858;PMS5003;59713;50.866;4.324;2023-01-19T03:20:52;26;25;
71858;PMS5003;59713;50.866;4.324;2023-01-19T03:21:54;26;25;
71858;PMS5003;59713;50.866;4.324;2023-01-19T03:22:51;26;25;
71858;PMS5003;59713;50.866;4.324;2023-01-19T03:23:50;26;21;
71858;PMS5003;59713;50.866;4.324;2023-01-19T03:25:01;26;21;
71858;PMS5003;59713;50.866;4.324;2023-01-19T03:25:01;26;21;
71858;PMS5003;59713;50.866;4.324;2023-01-19T03:25:50;26;21;
71858;PMS5003;59713;50.866;4.324;2023-01-19T03:26:57;30;28;
71858;PMS5003;59713;50.866;4.324;2023-01-19T03:28:01;30;28;
71858;PMS5003;59713;50.866;4.324;2023-01-19T03:28:50;30;28;
71858;PMS5003;59713;50.866;4.324;2023-01-19T03:29:51;20;20;
71858;PMS5003;59713;50.866;4.324;2023-01-19T03:30:51;20;20;
71858;PMS5003;59713;50.866;4.324;2023-01-19T03:31:50;20;20;
71858;PMS5003;59713;50.866;4.324;2023-01-19T03:32:52;21;19;
71858;PMS5003;59713;50.866;4.324;2023-01-19T03:33:51;21;19;
71858;PMS5003;59713;50.866;4.324;2023-01-19T03:34:50;21;19;
71858;PMS5003;59713;50.866;4.324;2023-01-19T03:34:50;21;19;
71858;PMS5003;59713;50.866;4.324;2023-01-19T03:35:51;26;23;
71858;PMS5003;59713;50.866;4.324;2023-01-19T03:36:51;26;23;
71858;PMS5003;59713;50.866;4.324;2023-01-19T03:37:51;26;23;
71858;PMS5003;59713;50.866;4.324;2023-01-19T03:38:50;25;24;
71858;PMS5003;59713;50.866;4.324;2023-01-19T03:39:50;25;24;
71858;PMS5003;59713;50.866;4.324;2023-01-19T03:40:50;25;24;
71858;PMS5003;59713;50.866;4.324;2023-01-19T03:41:52;22;22;
71858;PMS5003;59713;50.866;4.324;2023-01-19T03:42:50;22;22;
71858;PMS5003;59713;50.866;4.324;2023-01-19T03:43:50;22;22;
71858;PMS5003;59713;50.866;4.324;2023-01-19T03:44:50;23;22;
71858;PMS5003;59713;50.866;4.324;2023-01-19T03:44:50;23;22;
71858;PMS5003;59713;50.866;4.324;2023-01-19T03:46:02;23;22;
71858;PMS5003;59713;50.866;4.324;2023-01-19T03:46:50;23;22;
71858;PMS5003;59713;50.866;4.324;2023-01-19T03:47:50;22;19;
71858;PMS5003;59713;50.866;4.324;2023-01-19T03:48:50;22;19;
71858;PMS5003;59713;50.866;4.324;2023-01-19T03:49:50;22;19;
71858;PMS5003;59713;50.866;4.324;2023-01-19T03:50:50;26;25;
71858;PMS5003;59713;50.866;4.324;2023-01-19T03:51:50;26;25;
71858;PMS5003;59713;50.866;4.324;2023-01-19T03:52:58;26;25;
71858;PMS5003;59713;50.866;4.324;2023-01-19T03:53:50;24;24;
71858;PMS5003;59713;50.866;4.324;2023-01-19T03:53:50;24;24;
71858;PMS5003;59713;50.866;4.324;2023-01-19T03:54:50;24;24;
71858;PMS5003;59713;50.866;4.324;2023-01-19T03:55:50;24;24;
71858;PMS5003;59713;50.866;4.324;2023-01-19T03:56:50;26;23;
71858;PMS5003;59713;50.866;4.324;2023-01-19T03:57:50;26;23;
71858;PMS5003;59713;50.866;4.324;2023-01-19T03:58:50;26;23;
71858;PMS5003;59713;50.866;4.324;2023-01-19T03:59:50;25;23;
71858;PMS5003;59713;50.866;4.324;2023-01-19T04:00:51;25;23;
71858;PMS5003;59713;50.866;4.324;2023-01-19T04:01:50;25;23;
71858;PMS5003;59713;50.866;4.324;2023-01-19T04:02:50;29;28;
71858;PMS5003;59713;50.866;4.324;2023-01-19T04:03:51;29;28;
71858;PMS5003;59713;50.866;4.324;2023-01-19T04:03:51;29;28;
71858;PMS5003;59713;50.866;4.324;2023-01-19T04:04:50;29;28;
71858;PMS5003;59713;50.866;4.324;2023-01-19T04:05:50;25;24;
71858;PMS5003;59713;50.866;4.324;2023-01-19T04:06:50;25;24;
71858;PMS5003;59713;50.866;4.324;2023-01-19T04:07:51;25;24;
71858;PMS5003;59713;50.866;4.324;2023-01-19T04:08:50;27;25;
71858;PMS5003;59713;50.866;4.324;2023-01-19T04:09:50;27;25;
71858;PMS5003;59713;50.866;4.324;2023-01-19T04:10:50;27;25;
71858;PMS5003;59713;50.866;4.324;2023-01-19T04:11:50;25;24;
71858;PMS5003;59713;50.866;4.324;2023-01-19T04:12:55;25;24;
71858;PMS5003;59713;50.866;4.324;2023-01-19T04:12:55;25;24;
71858;PMS5003;59713;50.866;4.324;2023-01-19T04:13:50;25;24;
71858;PMS5003;59713;50.866;4.324;2023-01-19T04:14:50;28;25;
71858;PMS5003;59713;50.866;4.324;2023-01-19T04:15:50;28;25;
71858;PMS5003;59713;50.866;4.324;2023-01-19T04:16:50;28;25;
71858;PMS5003;59713;50.866;4.324;2023-01-19T04:17:50;29;25;
71858;PMS5003;59713;50.866;4.324;2023-01-19T04:18:50;29;25;
71858;PMS5003;59713;50.866;4.324;2023-01-19T04:19:50;29;25;
71858;PMS5003;59713;50.866;4.324;2023-01-19T04:20:50;26;23;
71858;PMS5003;59713;50.866;4.324;2023-01-19T04:21:50;26;23;
71858;PMS5003;59713;50.866;4.324;2023-01-19T04:21:50;26;23;
71858;PMS5003;59713;50.866;4.324;2023-01-19T04:22:50;26;23;
71858;PMS5003;59713;50.866;4.324;2023-01-19T04:23:50;29;27;
71858;PMS5003;59713;50.866;4.324;2023-01-19T04:24:50;29;27;
71858;PMS5003;59713;50.866;4.324;2023-01-19T04:25:55;29;27;
71858;PMS5003;59713;50.866;4.324;2023-01-19T04:26:50;28;23;
71858;PMS5003;59713;50.866;4.324;2023-01-19T04:27:50;28;23;
71858;PMS5003;59713;50.866;4.324;2023-01-19T04:28:50;28;23;
71858;PMS5003;59713;50.866;4.324;2023-01-19T04:29:50;36;28;
71858;PMS5003;59713;50.866;4.324;2023-01-19T04:30:50;36;28;
71858;PMS5003;59713;50.866;4.324;2023-01-19T04:30:50;36;28;
71858;PMS5003;59713;50.866;4.324;2023-01-19T04:31:50;36;28;
71858;PMS5003;59713;50.866;4.324;2023-01-19T04:32:50;32;28;
71858;PMS5003;59713;50.866;4.324;2023-01-19T04:33:50;32;28;
71858;PMS5003;59713;50.866;4.324;2023-01-19T04:34:52;32;28;
71858;PMS5003;59713;50.866;4.324;2023-01-19T04:35:51;33;28;
71858;PMS5003;59713;50.866;4.324;2023-01-19T04:36:52;33;28;
71858;PMS5003;59713;50.866;4.324;2023-01-19T04:37:50;33;28;
71858;PMS5003;59713;50.866;4.324;2023-01-19T04:38:50;23;23;
71858;PMS5003;59713;50.866;4.324;2023-01-19T04:39:55;23;23;
71858;PMS5003;59713;50.866;4.324;2023-01-19T04:39:55;23;23;
71858;PMS5003;59713;50.866;4.324;2023-01-19T04:40:50;23;23;
71858;PMS5003;59713;50.866;4.324;2023-01-19T04:41:52;26;26;
71858;PMS5003;59713;50.866;4.324;2023-01-19T04:42:52;26;26;
71858;PMS5003;59713;50.866;4.324;2023-01-19T04:43:52;26;26;
71858;PMS5003;59713;50.866;4.324;2023-01-19T04:44:50;25;25;
71858;PMS5003;59713;50.866;4.324;2023-01-19T04:45:52;25;25;
71858;PMS5003;59713;50.866;4.324;2023-01-19T04:46:50;25;25;
71858;PMS5003;59713;50.866;4.324;2023-01-19T04:47:50;30;28;
71858;PMS5003;59713;50.866;4.324;2023-01-19T04:48:51;30;28;
71858;PMS5003;59713;50.866;4.324;2023-01-19T04:48:52;30;28;
71858;PMS5003;59713;50.866;4.324;2023-01-19T04:49:50;30;28;
71858;PMS5003;59713;50.866;4.324;2023-01-19T04:50:50;32;29;
71858;PMS5003;59713;50.866;4.324;2023-01-19T04:51:51;32;29;
71858;PMS5003;59713;50.866;4.324;2023-01-19T04:52:50;32;29;
71858;PMS5003;59713;50.866;4.324;2023-01-19T04:53:50;44;32;
71858;PMS5003;59713;50.866;4.324;2023-01-19T04:54:57;44;32;
71858;PMS5003;59713;50.866;4.324;2023-01-19T04:55:51;44;32;
71858;PMS5003;59713;50.866;4.324;2023-01-19T04:56:50;33;30;
71858;PMS5003;59713;50.866;4.324;2023-01-19T04:57:50;33;30;
71858;PMS5003;59713;50.866;4.324;2023-01-19T04:57:50;33;30;
71858;PMS5003;59713;50.866;4.324;2023-01-19T04:58:50;33;30;
71858;PMS5003;59713;50.866;4.324;2023-01-19T04:59:50;35;30;
71858;PMS5003;59713;50.866;4.324;2023-01-19T05:00:52;35;30;
71858;PMS5003;59713;50.866;4.324;2023-01-19T05:01:50;35;30;
71858;PMS5003;59713;50.866;4.324;2023-01-19T05:02:50;34;32;
71858;PMS5003;59713;50.866;4.324;2023-01-19T05:03:50;34;32;
71858;PMS5003;59713;50.866;4.324;2023-01-19T05:04:50;34;32;
71858;PMS5003;59713;50.866;4.324;2023-01-19T05:05:50;31;29;
71858;PMS5003;59713;50.866;4.324;2023-01-19T05:06:50;31;29;
71858;PMS5003;59713;50.866;4.324;2023-01-19T05:06:50;31;29;
71858;PMS5003;59713;50.866;4.324;2023-01-19T05:07:50;31;29;
71858;PMS5003;59713;50.866;4.324;2023-01-19T05:08:50;34;30;
71858;PMS5003;59713;50.866;4.324;2023-01-19T05:09:50;34;30;
71858;PMS5003;59713;50.866;4.324;2023-01-19T05:10:55;34;30;
71858;PMS5003;59713;50.866;4.324;2023-01-19T05:11:50;45;33;
71858;PMS5003;59713;50.866;4.324;2023-01-19T05:12:50;45;33;
71858;PMS5003;59713;50.866;4.324;2023-01-19T05:13:50;45;33;
71858;PMS5003;59713;50.866;4.324;2023-01-19T05:14:52;44;33;
71858;PMS5003;59713;50.866;4.324;2023-01-19T05:15:50;44;33;
71858;PMS5003;59713;50.866;4.324;2023-01-19T05:16:50;44;33;
71858;PMS5003;59713;50.866;4.324;2023-01-19T05:16:50;44;33;
71858;PMS5003;59713;50.866;4.324;2023-01-19T05:17:50;37;29;
71858;PMS5003;59713;50.866;4.324;2023-01-19T05:18:50;37;29;
71858;PMS5003;59713;50.866;4.324;2023-01-19T05:19:50;37;29;
71858;PMS5003;59713;50.866;4.324;2023-01-19T05:20:50;38;33;
71858;PMS5003;59713;50.866;4.324;2023-01-19T05:21:50;38;33;
71858;PMS5003;59713;50.866;4.324;2023-01-19T05:22:51;38;33;
71858;PMS5003;59713;50.866;4.324;2023-01-19T05:23:50;39;33;
71858;PMS5003;59713;50.866;4.324;2023-01-19T05:24:50;39;33;
71858;PMS5003;59713;50.866;4.324;2023-01-19T05:25:50;39;33;
71858;PMS5003;59713;50.866;4.324;2023-01-19T05:25:50;39;33;
71858;PMS5003;59713;50.866;4.324;2023-01-19T05:26:50;38;34;
71858;PMS5003;59713;50.866;4.324;2023-01-19T05:27:50;38;34;
71858;PMS5003;59713;50.866;4.324;2023-01-19T05:28:50;38;34;
71858;PMS5003;59713;50.866;4.324;2023-01-19T05:29:50;36;32;
71858;PMS5003;59713;50.866;4.324;2023-01-19T05:30:50;36;32;
71858;PMS5003;59713;50.866;4.324;2023-01-19T05:31:50;36;32;
71858;PMS5003;59713;50.866;4.324;2023-01-19T05:32:50;31;30;
71858;PMS5003;59713;50.866;4.324;2023-01-19T05:33:50;31;30;
71858;PMS5003;59713;50.866;4.324;2023-01-19T05:34:50;31;30;
71858;PMS5003;59713;50.866;4.324;2023-01-19T05:35:51;37;29;
71858;PMS5003;59713;50.866;4.324;2023-01-19T05:35:51;37;29;
71858;PMS5003;59713;50.866;4.324;2023-01-19T05:36:51;37;29;
71858;PMS5003;59713;50.866;4.324;2023-01-19T05:37:50;37;29;
71858;PMS5003;59713;50.866;4.324;2023-01-19T05:38:50;35;31;
71858;PMS5003;59713;50.866;4.324;2023-01-19T05:39:51;35;31;
71858;PMS5003;59713;50.866;4.324;2023-01-19T05:41:01;35;31;
71858;PMS5003;59713;50.866;4.324;2023-01-19T05:41:50;37;31;
71858;PMS5003;59713;50.866;4.324;2023-01-19T05:42:50;37;31;
71858;PMS5003;59713;50.866;4.324;2023-01-19T05:43:50;37;31;
71858;PMS5003;59713;50.866;4.324;2023-01-19T05:44:50;33;30;
71858;PMS5003;59713;50.866;4.324;2023-01-19T05:45:50;33;30;
71858;PMS5003;59713;50.866;4.324;2023-01-19T05:45:50;33;30;
71858;PMS5003;59713;50.866;4.324;2023-01-19T05:46:50;33;30;
71858;PMS5003;59713;50.866;4.324;2023-01-19T05:47:50;32;31;
71858;PMS5003;59713;50.866;4.324;2023-01-19T05:48:55;32;31;
71858;PMS5003;59713;50.866;4.324;2023-01-19T05:49:50;32;31;
71858;PMS5003;59713;50.866;4.324;2023-01-19T05:50:50;36;32;
71858;PMS5003;59713;50.866;4.324;2023-01-19T05:51:50;36;32;
71858;PMS5003;59713;50.866;4.324;2023-01-19T05:52:51;36;32;
71858;PMS5003;59713;50.866;4.324;2023-01-19T05:53:50;34;29;
71858;PMS5003;59713;50.866;4.324;2023-01-19T05:54:50;34;29;
71858;PMS5003;59713;50.866;4.324;2023-01-19T05:54:50;34;29;
71858;PMS5003;59713;50.866;4.324;2023-01-19T05:55:58;34;29;
71858;PMS5003;59713;50.866;4.324;2023-01-19T05:56:50;31;29;
71858;PMS5003;59713;50.866;4.324;2023-01-19T05:58:01;31;29;
71858;PMS5003;59713;50.866;4.324;2023-01-19T05:58:50;31;29;
71858;PMS5003;59713;50.866;4.324;2023-01-19T05:59:50;40;33;
71858;PMS5003;59713;50.866;4.324;2023-01-19T06:00:50;40;33;
71858;PMS5003;59713;50.866;4.324;2023-01-19T06:01:50;40;33;
71858;PMS5003;59713;50.866;4.324;2023-01-19T06:02:50;40;32;